Time;durP1;ratioP1;P1;durP2;ratioP2;P2;SDS_P1;SDS_P2;PMS_P1;PMS_P2;Temp;Humidity;BMP_temperature;BMP_pressure;BME280_temperature;BME280_humidity;BME280_pressure;Samples;Min_cycle;Max_cycle;Signal;HPM_P1;HPM_P2
2021/06/28 00:02:10;;;;;;;5.70;4.88;;;;;;;;;;5151492;27;20363;-87
2021/06/28 00:04:40;;;;;;;5.47;4.60;;;;;;;;;;5149143;27;20379;-86
2021/06/28 00:07:07;;;;;;;5.50;4.85;;;;;;;;;;5152367;27;20383;-87
2021/06/28 00:09:33;;;;;;;5.00;4.60;;;;;;;;;;5150243;27;20355;-87
2021/06/28 00:11:59;;;;;;;7.32;4.68;;;;;;;;;;5150521;27;20359;-87
2021/06/28 00:14:26;;;;;;;5.53;5.00;;;;;;;;;;5151728;27;20367;-87
2021/06/28 00:16:52;;;;;;;5.50;4.70;;;;;;;;;;5150866;27;20393;-88
2021/06/28 00:19:19;;;;;;;5.40;4.95;;;;;;;;;;5150556;27;20359;-87
2021/06/28 00:22:08;;;;;;;5.22;4.72;;;;;;;;;;5151595;27;20842;-87
2021/06/28 00:24:34;;;;;;;5.40;4.90;;;;;;;;;;5152251;27;20372;-88
2021/06/28 00:27:01;;;;;;;6.30;4.80;;;;;;;;;;5151741;27;20391;-87
2021/06/28 00:29:27;;;;;;;5.03;4.63;;;;;;;;;;5151494;27;20367;-86
2021/06/28 00:31:55;;;;;;;5.80;5.10;;;;;;;;;;5151505;27;20773;-86
2021/06/28 00:34:21;;;;;;;6.43;4.70;;;;;;;;;;5152230;27;20468;-86
2021/06/28 00:36:47;;;;;;;5.33;4.50;;;;;;;;;;5153531;27;20450;-88
2021/06/28 00:39:13;;;;;;;5.70;5.18;;;;;;;;;;5155429;27;20805;-87
2021/06/28 00:41:39;;;;;;;5.60;5.00;;;;;;;;;;5155670;27;20454;-87
2021/06/28 00:44:07;;;;;;;5.10;4.70;;;;;;;;;;5154878;27;20359;-88
2021/06/28 00:46:33;;;;;;;6.07;4.95;;;;;;;;;;5155790;27;20395;-87
2021/06/28 00:48:59;;;;;;;5.55;5.05;;;;;;;;;;5155083;27;20492;-87
2021/06/28 00:51:25;;;;;;;5.18;4.78;;;;;;;;;;5153544;27;20442;-86
2021/06/28 00:54:02;;;;;;;5.60;4.97;;;;;;;;;;5156358;27;20430;-89
2021/06/28 00:56:28;;;;;;;6.40;5.32;;;;;;;;;;5155142;27;20386;-86
2021/06/28 00:58:56;;;;;;;6.43;5.35;;;;;;;;;;5153800;27;20375;-87
2021/06/28 01:01:36;;;;;;;5.43;4.93;;;;;;;;;;5156215;27;20348;-86
2021/06/28 01:04:04;;;;;;;5.57;5.07;;;;;;;;;;5152822;27;20374;-88
2021/06/28 01:06:30;;;;;;;6.95;5.35;;;;;;;;;;5154336;27;20892;-87
2021/06/28 01:08:56;;;;;;;5.83;5.33;;;;;;;;;;5154430;27;20443;-86
2021/06/28 01:11:25;;;;;;;6.40;5.83;;;;;;;;;;5154607;27;20416;-87
2021/06/28 01:13:51;;;;;;;6.60;5.70;;;;;;;;;;5154241;27;20420;-86
2021/06/28 01:16:37;;;;;;;6.30;5.50;;;;;;;;;;5155765;27;20366;-85
2021/06/28 01:19:04;;;;;;;5.93;5.43;;;;;;;;;;5154186;27;20690;-86
2021/06/28 01:21:30;;;;;;;6.25;5.43;;;;;;;;;;5153221;27;20912;-87
2021/06/28 01:23:56;;;;;;;6.10;5.60;;;;;;;;;;5152898;27;20358;-87
2021/06/28 01:26:22;;;;;;;5.70;5.20;;;;;;;;;;5152853;27;20391;-87
2021/06/28 01:28:48;;;;;;;5.90;5.30;;;;;;;;;;5153522;27;20369;-87
2021/06/28 01:31:14;;;;;;;6.55;5.80;;;;;;;;;;5154590;27;20359;-87
2021/06/28 01:33:41;;;;;;;5.70;5.18;;;;;;;;;;5137415;27;20442;-87
2021/06/28 01:36:07;;;;;;;6.00;5.05;;;;;;;;;;5153547;27;20423;-88
2021/06/28 01:38:33;;;;;;;6.30;5.70;;;;;;;;;;5153535;27;20456;-87
2021/06/28 01:40:59;;;;;;;6.35;5.70;;;;;;;;;;5153982;27;20500;-87
2021/06/28 01:43:27;;;;;;;6.15;5.43;;;;;;;;;;5155651;27;20876;-86
2021/06/28 01:45:56;;;;;;;5.87;5.30;;;;;;;;;;5135731;27;20900;-87
2021/06/28 01:48:23;;;;;;;6.20;5.60;;;;;;;;;;5155297;27;20375;-87
2021/06/28 01:50:50;;;;;;;6.13;5.40;;;;;;;;;;5152527;27;20363;-86
2021/06/28 01:53:16;;;;;;;6.45;5.85;;;;;;;;;;5153962;27;20412;-88
2021/06/28 01:55:43;;;;;;;5.93;5.43;;;;;;;;;;5153578;27;20363;-87
2021/06/28 01:58:29;;;;;;;6.63;6.03;;;;;;;;;;5156312;27;20370;-86
2021/06/28 02:00:55;;;;;;;6.40;5.80;;;;;;;;;;5154202;27;20443;-87
2021/06/28 02:03:23;;;;;;;6.55;5.95;;;;;;;;;;5152213;27;20462;-88
2021/06/28 02:06:10;;;;;;;7.05;6.20;;;;;;;;;;5151846;27;20414;-88
2021/06/28 02:08:40;;;;;;;6.40;5.80;;;;;;;;;;5153939;27;20367;-87
2021/06/28 02:11:08;;;;;;;7.55;5.60;;;;;;;;;;5154057;27;20372;-86
2021/06/28 02:13:57;;;;;;;7.13;6.43;;;;;;;;;;5154912;27;20367;-88
2021/06/28 02:16:27;;;;;;;6.35;5.85;;;;;;;;;;5155015;27;20435;-87
2021/06/28 02:18:53;;;;;;;6.53;5.88;;;;;;;;;;5151837;27;20420;-86
2021/06/28 02:21:19;;;;;;;6.45;5.85;;;;;;;;;;5151770;27;20733;-88
2021/06/28 02:23:45;;;;;;;6.57;5.85;;;;;;;;;;5152797;27;20408;-87
2021/06/28 02:26:12;;;;;;;6.83;5.43;;;;;;;;;;5152079;27;20910;-87
2021/06/28 02:28:57;;;;;;;6.13;5.53;;;;;;;;;;5152476;27;20472;-87
2021/06/28 02:31:24;;;;;;;6.72;6.13;;;;;;;;;;5153542;27;20412;-87
2021/06/28 02:34:14;;;;;;;6.85;6.18;;;;;;;;;;5153066;27;20347;-87
2021/06/28 02:37:00;;;;;;;6.37;5.77;;;;;;;;;;5152847;27;20371;-87
2021/06/28 02:39:26;;;;;;;6.33;5.73;;;;;;;;;;5151564;27;20870;-88
2021/06/28 02:41:52;;;;;;;7.40;6.67;;;;;;;;;;5151172;27;20454;-87
2021/06/28 02:44:19;;;;;;;9.30;6.75;;;;;;;;;;5151639;27;20363;-88
2021/06/28 02:46:45;;;;;;;9.30;6.38;;;;;;;;;;5152242;27;20440;-88
2021/06/28 02:49:11;;;;;;;7.40;6.73;;;;;;;;;;5151119;27;20389;-87
2021/06/28 02:51:37;;;;;;;7.60;6.70;;;;;;;;;;5150504;27;20453;-86
2021/06/28 02:54:03;;;;;;;7.93;6.93;;;;;;;;;;5151001;27;20366;-87
2021/06/28 02:56:29;;;;;;;7.20;6.47;;;;;;;;;;5150769;27;20857;-88
2021/06/28 02:58:56;;;;;;;6.83;6.23;;;;;;;;;;5151245;27;20370;-87
2021/06/28 03:01:23;;;;;;;7.17;6.53;;;;;;;;;;5150700;27;20371;-89
2021/06/28 03:03:49;;;;;;;6.65;6.05;;;;;;;;;;5151218;27;20419;-90
2021/06/28 03:06:16;;;;;;;8.13;7.18;;;;;;;;;;5152732;27;20868;-88
2021/06/28 03:08:45;;;;;;;8.98;6.93;;;;;;;;;;5152706;27;20387;-88
2021/06/28 03:11:31;;;;;;;7.95;6.97;;;;;;;;;;5152815;27;20403;-89
2021/06/28 03:13:59;;;;;;;7.40;6.60;;;;;;;;;;5154006;27;20358;-86
2021/06/28 03:16:25;;;;;;;7.90;6.53;;;;;;;;;;5149908;27;20364;-86
2021/06/28 03:18:52;;;;;;;11.45;6.90;;;;;;;;;;5150695;27;20358;-87
2021/06/28 03:21:18;;;;;;;10.77;7.47;;;;;;;;;;5150683;27;20415;-87
2021/06/28 03:23:44;;;;;;;13.93;7.43;;;;;;;;;;5150125;27;20389;-89
2021/06/28 03:26:30;;;;;;;17.20;7.50;;;;;;;;;;5151675;27;20383;-87
2021/06/28 03:28:57;;;;;;;14.57;7.40;;;;;;;;;;5151793;27;20371;-87
2021/06/28 03:31:23;;;;;;;17.60;7.35;;;;;;;;;;5152043;27;20839;-88
2021/06/28 03:33:49;;;;;;;12.02;7.18;;;;;;;;;;5150228;27;20397;-88
2021/06/28 03:36:15;;;;;;;17.05;7.68;;;;;;;;;;5150472;27;20395;-88
2021/06/28 03:38:41;;;;;;;28.58;8.48;;;;;;;;;;5150400;27;20363;-88
2021/06/28 03:41:07;;;;;;;13.88;7.43;;;;;;;;;;5150392;27;20908;-86
2021/06/28 03:43:33;;;;;;;9.23;7.07;;;;;;;;;;5150430;27;20395;-88
2021/06/28 03:45:59;;;;;;;7.47;6.78;;;;;;;;;;5150341;27;20413;-86
2021/06/28 03:48:45;;;;;;;10.35;7.03;;;;;;;;;;5149992;27;20687;-87
2021/06/28 03:51:15;;;;;;;9.18;7.10;;;;;;;;;;5151736;27;20402;-88
2021/06/28 03:53:48;;;;;;;8.10;6.55;;;;;;;;;;5153593;27;20366;-88
2021/06/28 03:56:37;;;;;;;8.15;6.30;;;;;;;;;;5152330;27;20411;-89
2021/06/28 03:59:44;;;;;;;8.70;6.55;;;;;;;;;;5153160;27;20438;-88
2021/06/28 04:02:10;;;;;;;28.63;8.55;;;;;;;;;;5153451;27;20371;-88
2021/06/28 04:05:21;;;;;;;21.10;7.30;;;;;;;;;;5153236;27;20367;-87
2021/06/28 04:08:05;;;;;;;7.38;6.32;;;;;;;;;;5153125;27;20383;-88
2021/06/28 04:10:33;;;;;;;6.97;6.38;;;;;;;;;;5150243;27;20362;-86
2021/06/28 04:13:19;;;;;;;6.28;5.68;;;;;;;;;;5156020;27;20803;-87
2021/06/28 04:15:47;;;;;;;6.45;5.82;;;;;;;;;;5155298;27;20363;-89
2021/06/28 04:18:34;;;;;;;7.63;6.43;;;;;;;;;;5155675;27;20355;-88
2021/06/28 04:21:20;;;;;;;6.72;6.10;;;;;;;;;;5155870;27;20375;-89
2021/06/28 04:23:52;;;;;;;6.88;6.07;;;;;;;;;;5156645;27;20382;-86
2021/06/28 04:26:18;;;;;;;6.75;6.03;;;;;;;;;;5155682;27;20383;-88
2021/06/28 04:28:44;;;;;;;8.23;5.93;;;;;;;;;;5155282;27;20431;-87
2021/06/28 04:31:12;;;;;;;49.90;9.82;;;;;;;;;;5137708;27;20387;-88
2021/06/28 04:33:38;;;;;;;42.00;9.63;;;;;;;;;;5153616;27;20366;-87
2021/06/28 04:36:04;;;;;;;18.02;7.55;;;;;;;;;;5153581;27;20363;-89
2021/06/28 04:38:30;;;;;;;20.17;8.17;;;;;;;;;;5153867;27;20431;-87
2021/06/28 04:40:56;;;;;;;20.75;7.70;;;;;;;;;;5154090;27;20391;-87
2021/06/28 04:43:22;;;;;;;27.45;8.95;;;;;;;;;;5154971;27;20428;-89
2021/06/28 04:45:48;;;;;;;30.45;9.15;;;;;;;;;;5155015;27;20375;-87
2021/06/28 04:48:15;;;;;;;23.70;7.20;;;;;;;;;;5156334;27;20360;-87
2021/06/28 04:51:01;;;;;;;15.43;6.23;;;;;;;;;;5150172;27;20477;-88
2021/06/28 04:53:27;;;;;;;13.57;6.57;;;;;;;;;;5131571;27;20448;-89
2021/06/28 04:55:53;;;;;;;15.75;6.35;;;;;;;;;;5133464;27;20391;-88
2021/06/28 04:58:19;;;;;;;17.80;7.38;;;;;;;;;;5134122;27;20412;-88
2021/06/28 05:00:45;;;;;;;19.52;7.18;;;;;;;;;;5136947;27;20353;-89
2021/06/28 05:03:11;;;;;;;21.27;7.25;;;;;;;;;;5135212;27;20875;-88
2021/06/28 05:05:37;;;;;;;21.08;6.47;;;;;;;;;;5135073;27;20773;-89
2021/06/28 05:08:03;;;;;;;13.88;5.63;;;;;;;;;;5137507;27;20377;-88
2021/06/28 05:10:31;;;;;;;20.58;7.57;;;;;;;;;;5134680;27;20381;-86
2021/06/28 05:12:57;;;;;;;12.02;6.18;;;;;;;;;;5135069;27;20368;-88
2021/06/28 05:15:23;;;;;;;9.80;6.53;;;;;;;;;;5133784;27;20365;-90
2021/06/28 05:17:49;;;;;;;8.87;6.10;;;;;;;;;;5132262;27;20727;-87
2021/06/28 05:20:16;;;;;;;7.78;5.97;;;;;;;;;;5132215;27;20361;-88
2021/06/28 05:22:46;;;;;;;9.93;6.80;;;;;;;;;;5133447;27;20422;-87
2021/06/28 05:25:13;;;;;;;7.53;5.70;;;;;;;;;;5133908;27;20364;-88
2021/06/28 05:27:39;;;;;;;7.50;6.35;;;;;;;;;;5134214;27;20377;-84
2021/06/28 05:30:08;;;;;;;10.52;6.93;;;;;;;;;;5134566;27;20369;-89
2021/06/28 05:32:55;;;;;;;7.82;5.97;;;;;;;;;;5133996;27;20407;-88
2021/06/28 05:35:22;;;;;;;12.82;6.30;;;;;;;;;;5133834;27;20979;-88
2021/06/28 05:37:49;;;;;;;10.45;5.85;;;;;;;;;;5135454;27;20361;-84
2021/06/28 05:40:15;;;;;;;8.52;5.78;;;;;;;;;;5134690;27;20364;-87
2021/06/28 05:42:43;;;;;;;15.52;6.20;;;;;;;;;;5132941;27;20365;-87
2021/06/28 05:45:10;;;;;;;8.63;5.88;;;;;;;;;;5134876;27;20369;-87
2021/06/28 05:47:36;;;;;;;7.45;5.30;;;;;;;;;;5132182;27;20889;-89
2021/06/28 05:50:03;;;;;;;10.93;5.90;;;;;;;;;;5114956;27;20389;-86
2021/06/28 05:52:29;;;;;;;123.13;16.30;;;;;;;;;;5132050;27;20369;-86
2021/06/28 05:54:56;;;;;;;7.95;5.50;;;;;;;;;;5132784;27;20815;-86
2021/06/28 05:57:24;;;;;;;11.43;5.75;;;;;;;;;;5132351;27;20385;-88
2021/06/28 05:59:55;;;;;;;8.77;5.32;;;;;;;;;;5134710;27;20353;-87
2021/06/28 06:02:25;;;;;;;10.60;5.60;;;;;;;;;;5131225;27;20373;-88
2021/06/28 06:04:51;;;;;;;7.18;4.82;;;;;;;;;;5135207;27;20365;-84
2021/06/28 06:07:17;;;;;;;5.82;5.05;;;;;;;;;;5133437;27;20392;-85
2021/06/28 06:09:45;;;;;;;7.07;5.18;;;;;;;;;;5132590;27;20361;-86
2021/06/28 06:12:11;;;;;;;7.32;5.25;;;;;;;;;;5134778;27;20433;-88
2021/06/28 06:14:37;;;;;;;6.07;4.90;;;;;;;;;;5133703;27;20374;-86
2021/06/28 06:17:03;;;;;;;12.23;5.55;;;;;;;;;;5135318;27;20372;-87
2021/06/28 06:19:29;;;;;;;9.85;5.13;;;;;;;;;;5135682;27;20377;-89
2021/06/28 06:21:55;;;;;;;7.43;4.50;;;;;;;;;;5133202;27;20369;-87
2021/06/28 06:24:26;;;;;;;25.77;5.88;;;;;;;;;;5130276;27;20432;-86
2021/06/28 06:26:52;;;;;;;6.80;4.25;;;;;;;;;;5131693;27;20438;-88
2021/06/28 06:29:18;;;;;;;9.60;4.32;;;;;;;;;;5131632;27;20368;-88
2021/06/28 06:31:44;;;;;;;8.43;4.47;;;;;;;;;;5130794;27;20377;-90
2021/06/28 06:34:13;;;;;;;6.68;4.63;;;;;;;;;;5130996;27;20368;-88
2021/06/28 06:36:39;;;;;;;15.00;4.93;;;;;;;;;;5131044;27;20460;-89
2021/06/28 06:39:05;;;;;;;9.90;4.50;;;;;;;;;;5131336;27;20448;-88
2021/06/28 06:41:32;;;;;;;16.70;4.80;;;;;;;;;;5131470;27;20953;-90
2021/06/28 06:43:58;;;;;;;18.67;4.97;;;;;;;;;;5130378;27;20409;-87
2021/06/28 06:46:24;;;;;;;3.90;3.47;;;;;;;;;;5131565;27;20432;-88
2021/06/28 06:48:50;;;;;;;19.75;4.28;;;;;;;;;;5131261;27;20769;-86
2021/06/28 06:51:17;;;;;;;6.82;3.75;;;;;;;;;;5132075;27;20361;-89
2021/06/28 06:53:43;;;;;;;5.33;3.50;;;;;;;;;;5130641;27;20365;-89
2021/06/28 06:56:12;;;;;;;5.75;3.70;;;;;;;;;;5130878;27;20381;-87
2021/06/28 06:58:38;;;;;;;6.30;3.88;;;;;;;;;;5131464;27;20402;-88
2021/06/28 07:01:06;;;;;;;16.65;4.22;;;;;;;;;;5132971;27;20381;-87
2021/06/28 07:03:34;;;;;;;7.90;3.70;;;;;;;;;;5133332;27;20811;-91
2021/06/28 07:06:00;;;;;;;4.28;3.47;;;;;;;;;;5132217;27;20863;-87
2021/06/28 07:08:29;;;;;;;7.22;4.05;;;;;;;;;;5131482;27;20368;-89
2021/06/28 07:10:55;;;;;;;16.10;4.68;;;;;;;;;;5131649;27;20369;-87
2021/06/28 07:13:21;;;;;;;10.33;4.20;;;;;;;;;;5131288;27;20358;-88
2021/06/28 07:15:47;;;;;;;7.85;3.60;;;;;;;;;;5134705;27;20367;-89
2021/06/28 07:18:13;;;;;;;3.90;3.40;;;;;;;;;;5134000;27;20407;-91
2021/06/28 07:20:40;;;;;;;7.60;4.38;;;;;;;;;;5131752;27;20378;-90
2021/06/28 07:23:07;;;;;;;5.82;3.60;;;;;;;;;;5131544;27;20356;-89
2021/06/28 07:25:33;;;;;;;6.20;3.92;;;;;;;;;;5131284;27;20865;-86
2021/06/28 07:28:00;;;;;;;15.57;4.60;;;;;;;;;;5132206;27;20385;-88
2021/06/28 07:30:26;;;;;;;7.00;3.90;;;;;;;;;;5130836;28;20810;-86
2021/06/28 07:32:52;;;;;;;4.40;3.60;;;;;;;;;;5131079;28;20403;-89
2021/06/28 07:35:20;;;;;;;4.53;3.50;;;;;;;;;;5132598;28;20417;-88
2021/06/28 07:37:46;;;;;;;6.40;3.70;;;;;;;;;;5131319;28;20715;-88
2021/06/28 07:40:13;;;;;;;6.38;3.92;;;;;;;;;;5130426;28;20731;-89
2021/06/28 07:42:40;;;;;;;4.23;3.83;;;;;;;;;;5130578;27;20365;-85
2021/06/28 07:45:06;;;;;;;9.17;4.37;;;;;;;;;;5134647;27;20751;-87
2021/06/28 07:47:32;;;;;;;19.63;5.22;;;;;;;;;;5136234;27;20430;-88
2021/06/28 07:49:59;;;;;;;28.83;5.20;;;;;;;;;;5135212;27;20448;-88
2021/06/28 07:52:25;;;;;;;14.80;4.55;;;;;;;;;;5134931;27;20731;-88
2021/06/28 07:54:51;;;;;;;9.40;4.03;;;;;;;;;;5135612;27;20369;-87
2021/06/28 07:57:17;;;;;;;4.40;4.00;;;;;;;;;;5134690;27;20361;-85
2021/06/28 07:59:43;;;;;;;80.53;10.27;;;;;;;;;;5135553;27;20375;-85
2021/06/28 08:02:09;;;;;;;11.77;4.05;;;;;;;;;;5135849;27;20384;-88
2021/06/28 08:04:35;;;;;;;3.20;2.90;;;;;;;;;;5135886;27;20368;-87
2021/06/28 08:07:02;;;;;;;3.83;3.20;;;;;;;;;;5134181;27;20389;-88
2021/06/28 08:09:27;;;;;;;3.35;3.05;;;;;;;;;;5134792;27;20365;-87
2021/06/28 08:11:58;;;;;;;7.45;3.47;;;;;;;;;;5134436;27;20795;-89
2021/06/28 08:14:24;;;;;;;10.70;4.60;;;;;;;;;;5133787;27;20878;-89
2021/06/28 08:16:50;;;;;;;4.43;4.03;;;;;;;;;;5134861;27;20365;-90
2021/06/28 08:19:16;;;;;;;15.00;5.85;;;;;;;;;;5134418;27;20376;-89
2021/06/28 08:21:42;;;;;;;22.65;5.03;;;;;;;;;;5133908;27;20365;-89
2021/06/28 08:24:09;;;;;;;5.63;4.10;;;;;;;;;;5133544;27;20396;-90
2021/06/28 08:26:36;;;;;;;4.20;3.83;;;;;;;;;;5133715;27;20415;-86
2021/06/28 08:29:03;;;;;;;3.67;3.38;;;;;;;;;;5135329;27;20384;-88
2021/06/28 08:31:35;;;;;;;10.25;3.95;;;;;;;;;;5134365;27;20449;-87
2021/06/28 08:34:01;;;;;;;4.10;3.67;;;;;;;;;;5135615;27;20365;-88
2021/06/28 08:36:27;;;;;;;4.05;3.40;;;;;;;;;;5133668;27;20384;-90
2021/06/28 08:38:53;;;;;;;6.37;4.50;;;;;;;;;;5135279;27;20357;-90
2021/06/28 08:41:19;;;;;;;5.22;4.10;;;;;;;;;;5133825;27;20365;-88
2021/06/28 08:43:46;;;;;;;15.05;4.85;;;;;;;;;;5134689;27;20376;-88
2021/06/28 08:46:16;;;;;;;4.50;3.92;;;;;;;;;;5134613;27;20452;-87
2021/06/28 08:48:42;;;;;;;7.60;3.70;;;;;;;;;;5133109;27;20361;-89
2021/06/28 08:51:08;;;;;;;4.28;3.40;;;;;;;;;;5133524;27;20365;-85
2021/06/28 08:53:34;;;;;;;4.43;3.60;;;;;;;;;;5132689;27;20353;-85
2021/06/28 08:56:07;;;;;;;6.93;3.40;;;;;;;;;;5132465;27;20401;-88
2021/06/28 08:58:33;;;;;;;5.25;3.60;;;;;;;;;;5134985;27;20450;-88
2021/06/28 09:00:59;;;;;;;23.23;4.80;;;;;;;;;;5132645;27;20365;-88
2021/06/28 09:03:25;;;;;;;7.53;4.00;;;;;;;;;;5134357;27;20365;-90
2021/06/28 09:05:52;;;;;;;3.92;3.33;;;;;;;;;;5132247;27;20369;-88
2021/06/28 09:08:19;;;;;;;6.57;3.65;;;;;;;;;;5133541;27;20393;-89
2021/06/28 09:10:46;;;;;;;6.28;3.90;;;;;;;;;;5133601;27;20369;-88
2021/06/28 09:13:12;;;;;;;5.53;3.42;;;;;;;;;;5133997;27;20907;-86
2021/06/28 09:15:48;;;;;;;4.07;3.35;;;;;;;;;;5132487;27;20361;-89
2021/06/28 09:18:18;;;;;;;4.28;3.13;;;;;;;;;;5133304;27;20361;-92
2021/06/28 09:20:45;;;;;;;4.53;3.72;;;;;;;;;;5133385;27;20361;-89
2021/06/28 09:23:20;;;;;;;3.55;3.25;;;;;;;;;;5133309;27;20357;-86
2021/06/28 09:25:46;;;;;;;9.10;3.85;;;;;;;;;;5132654;27;20373;-90
2021/06/28 09:28:13;;;;;;;6.23;3.70;;;;;;;;;;5134324;27;20724;-89
2021/06/28 09:30:45;;;;;;;6.53;3.70;;;;;;;;;;5132958;27;20365;-88
2021/06/28 09:33:11;;;;;;;3.65;3.33;;;;;;;;;;5132723;27;20361;-88
2021/06/28 09:35:41;;;;;;;4.03;3.40;;;;;;;;;;5133847;27;20846;-89
2021/06/28 09:38:27;;;;;;;3.95;3.40;;;;;;;;;;5132760;27;20448;-87
2021/06/28 09:40:53;;;;;;;7.05;3.55;;;;;;;;;;5132346;27;20497;-87
2021/06/28 09:43:22;;;;;;;8.00;3.88;;;;;;;;;;5132620;27;20368;-88
2021/06/28 09:45:51;;;;;;;4.47;3.15;;;;;;;;;;5132023;27;20457;-86
2021/06/28 09:48:28;;;;;;;13.63;4.00;;;;;;;;;;5132054;27;20400;-89
2021/06/28 09:51:12;;;;;;;4.20;3.60;;;;;;;;;;5132333;27;20735;-89
2021/06/28 09:53:38;;;;;;;12.02;4.35;;;;;;;;;;5132101;27;20380;-86
2021/06/28 09:56:04;;;;;;;4.03;3.60;;;;;;;;;;5131956;27;20353;-90
2021/06/28 09:58:30;;;;;;;6.80;3.70;;;;;;;;;;5133374;27;20396;-89
2021/06/28 10:01:02;;;;;;;4.00;3.50;;;;;;;;;;5131964;27;20881;-87
2021/06/28 10:03:38;;;;;;;5.72;4.10;;;;;;;;;;5133662;27;20444;-89
2021/06/28 10:08:35;;;;;;;6.80;3.63;;;;;;;;;;5133655;27;20368;-88
2021/06/28 10:11:16;;;;;;;5.25;3.83;;;;;;;;;;5132450;27;20365;-87
2021/06/28 10:13:42;;;;;;;4.80;3.55;;;;;;;;;;5132096;27;20448;-88
2021/06/28 10:16:11;;;;;;;4.60;3.43;;;;;;;;;;5131839;27;20369;-89
2021/06/28 10:18:39;;;;;;;6.35;3.60;;;;;;;;;;5133055;27;20352;-87
2021/06/28 10:21:06;;;;;;;8.30;4.13;;;;;;;;;;5132285;27;20368;-85
2021/06/28 10:23:34;;;;;;;114.45;11.65;;;;;;;;;;5131911;27;20377;-88
2021/06/28 10:26:00;;;;;;;9.40;4.00;;;;;;;;;;5131797;27;20469;-90
2021/06/28 10:28:27;;;;;;;10.48;3.92;;;;;;;;;;5131640;27;20449;-86
2021/06/28 10:30:53;;;;;;;19.67;4.45;;;;;;;;;;5131339;27;20712;-90
2021/06/28 10:33:19;;;;;;;4.20;3.10;;;;;;;;;;5131477;27;20373;-88
2021/06/28 10:35:45;;;;;;;3.75;3.30;;;;;;;;;;5131899;27;20361;-89
2021/06/28 10:38:13;;;;;;;4.43;3.38;;;;;;;;;;5131404;27;20426;-90
2021/06/28 10:40:57;;;;;;;4.43;3.22;;;;;;;;;;5131373;27;20465;-88
2021/06/28 10:43:33;;;;;;;6.10;3.60;;;;;;;;;;5132949;27;20361;-91
2021/06/28 10:46:01;;;;;;;13.52;4.13;;;;;;;;;;5131732;27;20441;-89
2021/06/28 10:48:28;;;;;;;3.50;3.20;;;;;;;;;;5133897;27;20786;-89
2021/06/28 10:51:02;;;;;;;3.33;3.03;;;;;;;;;;5133999;27;20369;-88
2021/06/28 10:53:28;;;;;;;5.75;3.20;;;;;;;;;;5130664;27;20358;-89
2021/06/28 10:55:54;;;;;;;5.57;3.28;;;;;;;;;;5130955;27;20444;-90
2021/06/28 10:58:25;;;;;;;4.57;2.97;;;;;;;;;;5132112;27;20365;-88
2021/06/28 11:00:52;;;;;;;3.67;3.00;;;;;;;;;;5132118;27;20447;-87
2021/06/28 11:03:26;;;;;;;3.17;2.88;;;;;;;;;;5131013;27;20361;-89
2021/06/28 11:06:25;;;;;;;5.80;3.65;;;;;;;;;;5131015;27;20462;-90
2021/06/28 11:09:10;;;;;;;4.38;3.25;;;;;;;;;;5098469;27;20412;-89
2021/06/28 11:11:45;;;;;;;3.95;2.90;;;;;;;;;;5132077;27;20874;-88
2021/06/28 11:14:21;;;;;;;3.35;2.67;;;;;;;;;;5130684;27;20432;-88
2021/06/28 11:17:05;;;;;;;3.30;3.00;;;;;;;;;;5130568;27;20723;-87
2021/06/28 11:19:56;;;;;;;3.50;3.08;;;;;;;;;;5131018;27;20365;-89
2021/06/28 11:22:31;;;;;;;3.20;2.90;;;;;;;;;;5132454;27;20448;-87
2021/06/28 11:25:01;;;;;;;3.40;3.08;;;;;;;;;;5132127;27;20418;-90
2021/06/28 11:27:27;;;;;;;4.78;3.20;;;;;;;;;;5131094;27;20402;-88
2021/06/28 11:29:54;;;;;;;3.50;3.00;;;;;;;;;;5131200;27;20372;-91
2021/06/28 11:32:20;;;;;;;9.57;3.60;;;;;;;;;;5131210;27;20873;-87
2021/06/28 11:34:46;;;;;;;3.80;3.00;;;;;;;;;;5131638;28;20369;-87
2021/06/28 11:37:12;;;;;;;6.43;3.15;;;;;;;;;;5132048;28;20357;-87
2021/06/28 11:39:52;;;;;;;4.18;3.00;;;;;;;;;;5131279;28;20456;-88
2021/06/28 11:42:33;;;;;;;4.93;2.90;;;;;;;;;;5131189;28;20376;-86
2021/06/28 11:45:00;;;;;;;3.53;3.20;;;;;;;;;;5130952;28;20938;-90
2021/06/28 11:47:56;;;;;;;4.13;2.73;;;;;;;;;;5131737;28;20381;-88
2021/06/28 11:50:25;;;;;;;3.15;2.92;;;;;;;;;;5113132;28;20373;-90
2021/06/28 11:52:58;;;;;;;3.58;3.28;;;;;;;;;;5130341;28;20381;-86
2021/06/28 11:55:24;;;;;;;3.20;3.00;;;;;;;;;;5130257;28;20368;-89
2021/06/28 11:57:55;;;;;;;4.13;2.87;;;;;;;;;;5130481;28;20357;-89
2021/06/28 12:00:21;;;;;;;3.53;2.72;;;;;;;;;;5130363;28;20451;-88
2021/06/28 12:02:47;;;;;;;4.70;3.05;;;;;;;;;;5130144;28;20369;-87
2021/06/28 12:05:16;;;;;;;7.72;3.20;;;;;;;;;;5131890;28;20730;-88
2021/06/28 12:07:50;;;;;;;6.50;3.13;;;;;;;;;;5132073;28;20388;-88
2021/06/28 12:10:19;;;;;;;3.40;2.90;;;;;;;;;;5131019;28;20771;-88
2021/06/28 12:12:45;;;;;;;3.10;2.80;;;;;;;;;;5130976;28;20784;-86
2021/06/28 12:15:12;;;;;;;4.43;3.15;;;;;;;;;;5131710;28;20721;-86
2021/06/28 12:17:38;;;;;;;3.50;2.88;;;;;;;;;;5132393;28;20387;-88
2021/06/28 12:20:05;;;;;;;4.03;2.60;;;;;;;;;;5130600;28;20397;-88
2021/06/28 12:22:33;;;;;;;3.33;3.00;;;;;;;;;;5131275;28;20484;-86
2021/06/28 12:25:02;;;;;;;3.30;3.00;;;;;;;;;;5130694;28;20367;-89
2021/06/28 12:27:29;;;;;;;3.27;2.70;;;;;;;;;;5131990;28;20862;-88
2021/06/28 12:29:56;;;;;;;6.10;3.40;;;;;;;;;;5132346;27;20395;-89
2021/06/28 12:32:22;;;;;;;4.75;3.30;;;;;;;;;;5134152;27;20357;-90
2021/06/28 12:35:09;;;;;;;6.63;3.28;;;;;;;;;;5133896;27;20393;-91
2021/06/28 12:37:39;;;;;;;8.05;3.42;;;;;;;;;;5133289;27;20485;-88
2021/06/28 12:40:14;;;;;;;3.63;3.13;;;;;;;;;;5133556;27;20426;-91
2021/06/28 12:42:41;;;;;;;3.78;3.03;;;;;;;;;;5134215;27;20806;-87
2021/06/28 12:45:08;;;;;;;4.00;2.93;;;;;;;;;;5133420;27;20409;-88
2021/06/28 12:47:34;;;;;;;3.78;3.03;;;;;;;;;;5133175;27;20919;-86
2021/06/28 12:50:00;;;;;;;5.32;3.00;;;;;;;;;;5134026;27;20418;-88
2021/06/28 12:52:36;;;;;;;3.53;2.92;;;;;;;;;;5134360;27;20366;-88
2021/06/28 12:55:21;;;;;;;3.90;3.40;;;;;;;;;;5134270;27;20398;-88
2021/06/28 12:57:48;;;;;;;3.65;3.13;;;;;;;;;;5134856;27;20463;-90
2021/06/28 13:00:17;;;;;;;4.07;3.08;;;;;;;;;;5133911;27;20357;-86
2021/06/28 13:02:51;;;;;;;4.35;2.97;;;;;;;;;;5133482;27;20829;-89
2021/06/28 13:05:17;;;;;;;4.32;3.22;;;;;;;;;;5134306;27;20413;-87
2021/06/28 13:07:43;;;;;;;4.80;2.80;;;;;;;;;;5133525;27;20475;-91
2021/06/28 13:10:10;;;;;;;4.65;3.40;;;;;;;;;;5133586;27;20401;-89
2021/06/28 13:12:36;;;;;;;3.20;2.90;;;;;;;;;;5135112;27;20364;-88
2021/06/28 13:15:29;;;;;;;4.05;2.95;;;;;;;;;;5133757;27;20365;-87
2021/06/28 13:18:04;;;;;;;4.27;3.20;;;;;;;;;;5133476;27;20361;-87
2021/06/28 13:20:30;;;;;;;3.60;2.65;;;;;;;;;;5133876;27;20373;-89
2021/06/28 13:22:59;;;;;;;21.15;4.10;;;;;;;;;;5133804;27;20426;-91
2021/06/28 13:25:25;;;;;;;17.35;4.70;;;;;;;;;;5134525;27;20440;-87
2021/06/28 13:27:51;;;;;;;5.03;3.20;;;;;;;;;;5133189;27;20381;-86
2021/06/28 13:30:22;;;;;;;3.80;2.78;;;;;;;;;;5132597;27;20379;-87
2021/06/28 13:32:49;;;;;;;70.00;8.55;;;;;;;;;;5135293;27;20384;-87
2021/06/28 13:35:29;;;;;;;5.97;3.20;;;;;;;;;;5132915;27;20502;-87
2021/06/28 13:38:08;;;;;;;3.42;3.13;;;;;;;;;;5132665;27;20353;-87
2021/06/28 13:40:35;;;;;;;3.40;3.10;;;;;;;;;;5132758;27;20374;-89
2021/06/28 13:43:01;;;;;;;5.23;2.90;;;;;;;;;;5132818;27;20365;-90
2021/06/28 13:45:28;;;;;;;3.70;3.10;;;;;;;;;;5132681;27;20384;-87
2021/06/28 13:48:00;;;;;;;3.50;2.97;;;;;;;;;;5134166;27;20754;-87
2021/06/28 13:50:29;;;;;;;3.47;2.83;;;;;;;;;;5134359;27;20831;-87
2021/06/28 13:52:56;;;;;;;37.33;6.53;;;;;;;;;;5134188;27;20407;-89
2021/06/28 13:55:22;;;;;;;5.18;2.90;;;;;;;;;;5132218;27;20887;-88
2021/06/28 13:57:51;;;;;;;4.45;3.05;;;;;;;;;;5133714;27;20369;-86
2021/06/28 14:00:18;;;;;;;5.40;2.90;;;;;;;;;;5131436;27;20873;-88
2021/06/28 14:02:44;;;;;;;3.90;3.00;;;;;;;;;;5132111;27;20445;-86
2021/06/28 14:05:11;;;;;;;3.38;3.08;;;;;;;;;;5133488;27;20706;-87
2021/06/28 14:07:37;;;;;;;4.40;2.80;;;;;;;;;;5133965;27;20449;-88
2021/06/28 14:10:03;;;;;;;3.97;3.10;;;;;;;;;;5135043;27;20349;-89
2021/06/28 14:12:29;;;;;;;5.03;3.25;;;;;;;;;;5133120;27;20369;-87
2021/06/28 14:14:55;;;;;;;7.40;3.45;;;;;;;;;;5132914;27;20769;-87
2021/06/28 14:17:21;;;;;;;5.15;3.22;;;;;;;;;;5133356;27;20369;-88
2021/06/28 14:19:47;;;;;;;4.20;3.10;;;;;;;;;;5132322;27;20362;-87
2021/06/28 14:22:13;;;;;;;7.13;3.17;;;;;;;;;;5131549;27;20707;-87
2021/06/28 14:24:39;;;;;;;7.28;3.80;;;;;;;;;;5132012;27;20412;-88
2021/06/28 14:27:05;;;;;;;17.10;4.18;;;;;;;;;;5132606;27;20389;-89
2021/06/28 14:32:35;;;;;;;7.95;3.38;;;;;;;;;;5132721;27;20486;-87
2021/06/28 14:35:01;;;;;;;3.50;2.97;;;;;;;;;;5132295;27;20373;-88
2021/06/28 14:37:27;;;;;;;13.38;4.32;;;;;;;;;;5133839;27;20372;-89
2021/06/28 14:39:54;;;;;;;4.68;3.22;;;;;;;;;;5132462;27;20448;-89
2021/06/28 14:42:40;;;;;;;3.50;3.20;;;;;;;;;;5131603;27;20421;-88
2021/06/28 14:45:06;;;;;;;5.18;3.35;;;;;;;;;;5132105;27;20738;-87
2021/06/28 14:47:32;;;;;;;10.00;3.95;;;;;;;;;;5131352;27;20385;-88
2021/06/28 14:49:59;;;;;;;4.33;3.70;;;;;;;;;;5131447;27;20839;-87
2021/06/28 14:52:26;;;;;;;4.00;3.10;;;;;;;;;;5132151;27;20369;-89
2021/06/28 14:54:56;;;;;;;3.90;3.50;;;;;;;;;;5131370;27;20365;-88
2021/06/28 14:57:22;;;;;;;3.45;3.13;;;;;;;;;;5131505;27;20442;-88
2021/06/28 14:59:48;;;;;;;3.88;3.47;;;;;;;;;;5114728;27;20381;-88